Maurertown, Virginia
Current Conditions -  °F | °C
As of 1:55 PM on Friday 24 Oct 2014 (Local Time) from KFRR Reporting Station
Clear Clear  
Wind Chill: 63°   Ceiling: Unl
Heat Index: 63°   Visibility: 10mi
Dew Point: 39°   Wind: 6mph
Humidity: 42%   Direction: 310°NW
Pressure: 29.95"   Gusts: NA
Location:  38.93°N, 78.46°W
Report Text: KFRR 241755Z AUTO 31005KT 10SM CLR 17/04 A2995 RMK AO1
Loading
Personal Weather Stations






























Interactive Weather Map New forecast layout! Learn more

10-Day Weather Forecast

Advertisements
Track Severe Weather on mobile